Medi Baltimore — ICLW — position and weather

sailwx.info

Track history (hours):
 
Tides and Currents Weather Stations Pressure Air Temp Water Temp Dewpoint Dewpoint Depression Visibility Wind Speed Wind Dir Waves Ship Positions

Medi Baltimore

Last reported at 2014-Oct-23 06:25 UTC. Time now 2014-Oct-25 11:22 UTC.
Position N 31°35' E 121°27'.

Length 225 m; draft 6.6 m.

Type: Cargo ship. MMSI: 247255300.

Date/timePositionNaut miles runAvg speedWind from/ knotsBaromVisibWave heightAir tempDewpointWater temp
2014-Oct-23 06:25N 31°35' E 121°27'0 0.0
2014-Oct-23 02:28N 31°35' E 121°27'0 0.0
2014-Oct-23 01:10N 31°35' E 121°27'0 0.0
2014-Oct-22 05:31N 31°35' E 121°27'0 0.0
2014-Oct-22 03:25N 31°35' E 121°27'  
2014-Oct-19 09:15N 31°36' E 121°27'0 0.0
2014-Oct-19 08:32N 31°36' E 121°27'0 0.0
2014-Oct-19 07:26N 31°36' E 121°27'0 0.0
2014-Oct-19 06:32N 31°36' E 121°27'0 0.0
2014-Oct-19 05:21N 31°36' E 121°27'0 0.0
2014-Oct-19 03:26N 31°36' E 121°27'0 0.0
2014-Oct-19 02:27N 31°36' E 121°27'0 0.0
2014-Oct-19 00:26N 31°36' E 121°27'0 0.0
2014-Oct-18 23:32N 31°36' E 121°27'0 0.0
2014-Oct-18 22:14N 31°36' E 121°27'0 0.0
2014-Oct-18 21:26N 31°36' E 121°27'0 0.0
2014-Oct-18 20:26N 31°36' E 121°27'0 0.0
2014-Oct-18 19:20N 31°36' E 121°27'0 0.0
2014-Oct-18 17:32N 31°36' E 121°27'0 0.0
2014-Oct-18 11:20N 31°36' E 121°27'0 0.0
2014-Oct-18 10:08N 31°36' E 121°27'0 0.0
2014-Oct-18 09:26N 31°36' E 121°27'0 0.0
2014-Oct-18 08:20N 31°36' E 121°27'0 0.0
2014-Oct-18 06:32N 31°36' E 121°27'0 0.0
2014-Oct-18 05:20N 31°36' E 121°27'0 0.0
2014-Oct-18 04:19N 31°36' E 121°27'0 0.0
2014-Oct-18 03:13N 31°36' E 121°27'0 0.0
2014-Oct-18 02:19N 31°36' E 121°27'0 0.0
2014-Oct-18 00:31N 31°36' E 121°27'0 0.0
2014-Oct-17 23:31N 31°36' E 121°27'0 0.0
2014-Oct-17 22:10N 31°36' E 121°27'0 0.0
2014-Oct-17 20:22N 31°36' E 121°27'0 0.0
2014-Oct-17 19:19N 31°36' E 121°27'0 0.0
2014-Oct-17 18:28N 31°36' E 121°27'0 0.0
2014-Oct-17 17:10N 31°36' E 121°27'0 0.0
2014-Oct-17 16:04N 31°36' E 121°27'0 0.0
2014-Oct-17 11:31N 31°36' E 121°27'0 0.0
2014-Oct-15 09:33N 31°35' E 121°26'10 9.5
2014-Oct-15 08:33N 31°31' E 121°36'9 8.7
2014-Oct-15 07:33N 31°30' E 121°26'1010.0
2014-Oct-15 06:33N 31°23' E 121°35'1111.2
2014-Oct-15 05:33N 31°17' E 121°45'2511.7
2014-Oct-15 03:24N 31°03' E 122°10'9 9.8
2014-Oct-15 02:31N 31°02' E 122°20'6 5.8
2014-Oct-15 01:24N 31°01' E 122°27'48 1.8
2014-Oct-13 23:24N 30°47' E 123°20'  
Track history (hours):
 
Tides and Currents Weather Stations Pressure Air Temp Water Temp Dewpoint Dewpoint Depression Visibility Wind Speed Wind Dir Waves Ship Positions

Medi Baltimore

Last reported at 2014-Oct-23 06:25 UTC. Time now 2014-Oct-25 11:22 UTC.
Position N 31°35' E 121°27'.

Length 225 m; draft 6.6 m.

Type: Cargo ship. MMSI: 247255300.

Date/timePositionNaut miles runAvg speedWind from/ knotsBaromVisibWave heightAir tempDewpointWater temp
2014-Oct-23 06:25N 31°35' E 121°27'0 0.0
2014-Oct-23 02:28N 31°35' E 121°27'0 0.0
2014-Oct-23 01:10N 31°35' E 121°27'0 0.0
2014-Oct-22 05:31N 31°35' E 121°27'0 0.0
2014-Oct-22 03:25N 31°35' E 121°27'  
2014-Oct-19 09:15N 31°36' E 121°27'0 0.0
2014-Oct-19 08:32N 31°36' E 121°27'0 0.0
2014-Oct-19 07:26N 31°36' E 121°27'0 0.0
2014-Oct-19 06:32N 31°36' E 121°27'0 0.0
2014-Oct-19 05:21N 31°36' E 121°27'0 0.0
2014-Oct-19 03:26N 31°36' E 121°27'0 0.0
2014-Oct-19 02:27N 31°36' E 121°27'0 0.0
2014-Oct-19 00:26N 31°36' E 121°27'0 0.0
2014-Oct-18 23:32N 31°36' E 121°27'0 0.0
2014-Oct-18 22:14N 31°36' E 121°27'0 0.0
2014-Oct-18 21:26N 31°36' E 121°27'0 0.0
2014-Oct-18 20:26N 31°36' E 121°27'0 0.0
2014-Oct-18 19:20N 31°36' E 121°27'0 0.0
2014-Oct-18 17:32N 31°36' E 121°27'0 0.0
2014-Oct-18 11:20N 31°36' E 121°27'0 0.0
2014-Oct-18 10:08N 31°36' E 121°27'0 0.0
2014-Oct-18 09:26N 31°36' E 121°27'0 0.0
2014-Oct-18 08:20N 31°36' E 121°27'0 0.0
2014-Oct-18 06:32N 31°36' E 121°27'0 0.0
2014-Oct-18 05:20N 31°36' E 121°27'0 0.0
2014-Oct-18 04:19N 31°36' E 121°27'0 0.0
2014-Oct-18 03:13N 31°36' E 121°27'0 0.0
2014-Oct-18 02:19N 31°36' E 121°27'0 0.0
2014-Oct-18 00:31N 31°36' E 121°27'0 0.0
2014-Oct-17 23:31N 31°36' E 121°27'0 0.0
2014-Oct-17 22:10N 31°36' E 121°27'0 0.0
2014-Oct-17 20:22N 31°36' E 121°27'0 0.0
2014-Oct-17 19:19N 31°36' E 121°27'0 0.0
2014-Oct-17 18:28N 31°36' E 121°27'0 0.0
2014-Oct-17 17:10N 31°36' E 121°27'0 0.0
2014-Oct-17 16:04N 31°36' E 121°27'0 0.0
2014-Oct-17 11:31N 31°36' E 121°27'0 0.0
2014-Oct-15 09:33N 31°35' E 121°26'10 9.5
2014-Oct-15 08:33N 31°31' E 121°36'9 8.7
2014-Oct-15 07:33N 31°30' E 121°26'1010.0
2014-Oct-15 06:33N 31°23' E 121°35'1111.2
2014-Oct-15 05:33N 31°17' E 121°45'2511.7
2014-Oct-15 03:24N 31°03' E 122°10'9 9.8
2014-Oct-15 02:31N 31°02' E 122°20'6 5.8
2014-Oct-15 01:24N 31°01' E 122°27'48 1.8
2014-Oct-13 23:24N 30°47' E 123°20'  

Dump ship's entire track history